createdAt,value
2019-01-31T00:00:28.024Z,17.53
2019-01-31T00:01:38.081Z,17.52
2019-01-31T00:02:48.136Z,17.51
2019-01-31T00:03:58.194Z,17.51
2019-01-31T00:05:08.255Z,17.51
2019-01-31T00:06:18.332Z,17.50
2019-01-31T00:07:28.387Z,17.50
2019-01-31T00:08:45.649Z,17.49
2019-01-31T00:09:48.512Z,17.48
2019-01-31T00:10:58.559Z,17.48
2019-01-31T00:12:08.609Z,17.47
2019-01-31T00:13:18.659Z,17.46
2019-01-31T00:14:28.721Z,17.46
2019-01-31T00:15:38.810Z,17.45
2019-01-31T00:16:48.872Z,17.44
2019-01-31T00:17:58.958Z,17.44
2019-01-31T00:19:09.010Z,17.43
2019-01-31T00:20:19.070Z,17.43
2019-01-31T00:21:29.136Z,17.42
2019-01-31T00:22:39.192Z,17.42
2019-01-31T00:23:49.232Z,17.41
2019-01-31T00:24:59.288Z,17.40
2019-01-31T00:26:09.675Z,17.41
2019-01-31T00:27:19.736Z,17.40
2019-01-31T00:28:29.813Z,17.40
2019-01-31T00:29:39.869Z,17.39
2019-01-31T00:30:50.015Z,17.39
2019-01-31T00:32:00.075Z,17.39
2019-01-31T00:33:10.126Z,17.39
2019-01-31T00:34:20.178Z,17.39
2019-01-31T00:35:30.236Z,17.38
2019-01-31T00:36:40.293Z,17.39
2019-01-31T00:37:50.346Z,17.38
2019-01-31T00:39:00.401Z,17.38
2019-01-31T00:40:10.459Z,17.37
2019-01-31T00:41:20.517Z,17.37
2019-01-31T00:42:30.570Z,17.36
2019-01-31T00:43:40.660Z,17.36
2019-01-31T00:44:50.703Z,17.36
2019-01-31T00:46:00.755Z,17.35
2019-01-31T00:47:10.939Z,17.35
2019-01-31T00:48:20.879Z,17.36
2019-01-31T00:49:30.952Z,17.35
2019-01-31T00:50:41.004Z,17.34
2019-01-31T00:51:51.055Z,17.33
2019-01-31T00:53:01.091Z,17.33
2019-01-31T00:54:11.140Z,17.33
2019-01-31T00:55:21.200Z,17.33
2019-01-31T00:56:31.242Z,17.32
2019-01-31T00:57:41.296Z,17.32
2019-01-31T00:58:51.344Z,17.31
2019-01-31T01:00:01.398Z,17.31
2019-01-31T01:01:11.449Z,17.32
2019-01-31T01:02:21.594Z,17.31
2019-01-31T01:03:31.676Z,17.31
2019-01-31T01:04:41.730Z,17.31
2019-01-31T01:05:51.771Z,17.31
2019-01-31T01:07:01.812Z,17.30
2019-01-31T01:08:11.856Z,17.30
2019-01-31T01:09:21.897Z,17.30
2019-01-31T01:10:31.939Z,17.29
2019-01-31T01:11:41.982Z,17.29
2019-01-31T01:12:52.025Z,17.29
2019-01-31T01:14:02.080Z,17.28
2019-01-31T01:15:12.119Z,17.29
2019-01-31T01:16:22.179Z,17.28
2019-01-31T01:17:32.232Z,17.28
2019-01-31T01:18:42.280Z,17.27
2019-01-31T01:19:52.325Z,17.27
2019-01-31T01:21:02.368Z,17.28
2019-01-31T01:22:12.426Z,17.27
2019-01-31T01:23:22.516Z,17.26
2019-01-31T01:24:32.559Z,17.26
2019-01-31T01:25:42.601Z,17.26
2019-01-31T01:26:52.666Z,17.26
2019-01-31T01:28:02.725Z,17.25
2019-01-31T01:29:12.801Z,17.25
2019-01-31T01:30:22.837Z,17.24
2019-01-31T01:31:32.879Z,17.25
2019-01-31T01:32:42.915Z,17.24
2019-01-31T01:33:53.959Z,17.24
2019-01-31T01:35:04.004Z,17.23
2019-01-31T01:36:14.045Z,17.22
2019-01-31T01:37:24.103Z,17.23
2019-01-31T01:38:35.152Z,17.23
2019-01-31T01:39:45.539Z,17.23
2019-01-31T01:40:55.583Z,17.21
2019-01-31T01:42:05.763Z,17.21
2019-01-31T01:43:15.715Z,17.21
2019-01-31T01:44:25.757Z,17.21
2019-01-31T01:45:35.801Z,17.22
2019-01-31T01:46:45.850Z,17.20
2019-01-31T01:47:55.891Z,17.19
2019-01-31T01:49:05.933Z,17.19
2019-01-31T01:50:15.975Z,17.19
2019-01-31T01:51:26.020Z,17.19
2019-01-31T01:52:36.073Z,17.19
2019-01-31T01:53:46.122Z,17.18
2019-01-31T01:54:56.167Z,17.18
2019-01-31T01:56:06.214Z,17.18
2019-01-31T01:57:16.264Z,17.17
2019-01-31T01:58:26.310Z,17.18
2019-01-31T01:59:36.375Z,17.17
2019-01-31T02:00:46.443Z,17.17
2019-01-31T02:01:56.482Z,17.16
2019-01-31T02:03:06.530Z,17.16
2019-01-31T02:04:16.574Z,17.15
2019-01-31T02:05:26.643Z,17.15
2019-01-31T02:06:36.688Z,17.14
2019-01-31T02:07:46.755Z,17.15
2019-01-31T02:08:56.828Z,17.15
2019-01-31T02:10:06.879Z,17.14
2019-01-31T02:11:16.918Z,17.14
2019-01-31T02:12:26.962Z,17.14
2019-01-31T02:13:37.004Z,17.15
2019-01-31T02:14:47.110Z,17.13
2019-01-31T02:15:58.166Z,17.13
2019-01-31T02:17:09.228Z,17.12
2019-01-31T02:18:19.273Z,17.12
2019-01-31T02:19:29.313Z,17.11
2019-01-31T02:20:39.361Z,17.12
2019-01-31T02:21:49.447Z,17.11
2019-01-31T02:22:59.439Z,17.11
2019-01-31T02:24:09.483Z,17.11
2019-01-31T02:25:19.526Z,17.10
2019-01-31T02:26:29.572Z,17.10
2019-01-31T02:27:39.608Z,17.10
2019-01-31T02:28:49.651Z,17.09
2019-01-31T02:29:59.693Z,17.09
2019-01-31T02:31:09.727Z,17.08
2019-01-31T02:32:19.773Z,17.07
2019-01-31T02:33:29.816Z,17.07
2019-01-31T02:34:39.857Z,17.07
2019-01-31T02:35:49.901Z,17.07
2019-01-31T02:36:59.943Z,17.07
2019-01-31T02:38:09.987Z,17.07
2019-01-31T02:39:20.194Z,17.06
2019-01-31T02:40:30.244Z,17.07
2019-01-31T02:41:40.269Z,17.08
2019-01-31T02:42:50.309Z,17.06
2019-01-31T02:44:00.561Z,17.06
2019-01-31T02:45:10.525Z,17.07
2019-01-31T02:46:20.573Z,17.06
2019-01-31T02:47:30.596Z,17.07
2019-01-31T02:48:40.637Z,17.06
2019-01-31T02:49:50.702Z,17.05
2019-01-31T02:51:00.715Z,17.05
2019-01-31T02:52:10.754Z,17.06
2019-01-31T02:53:20.803Z,17.04
2019-01-31T02:54:30.865Z,17.05
2019-01-31T02:55:40.907Z,17.05
2019-01-31T02:56:50.949Z,17.04
2019-01-31T02:58:00.987Z,17.04
2019-01-31T02:59:11.017Z,17.06
2019-01-31T03:00:21.064Z,17.05
2019-01-31T03:01:31.104Z,17.04
2019-01-31T03:02:41.144Z,17.04
2019-01-31T03:03:51.236Z,17.04
2019-01-31T03:05:01.232Z,17.04
2019-01-31T03:06:11.267Z,17.03
2019-01-31T03:07:21.304Z,17.05
2019-01-31T03:08:31.354Z,17.04
2019-01-31T03:09:41.393Z,17.05
2019-01-31T03:10:51.431Z,17.04
2019-01-31T03:12:01.610Z,17.03
2019-01-31T03:13:11.649Z,17.03
2019-01-31T03:14:21.699Z,17.02
2019-01-31T03:15:31.743Z,17.02
2019-01-31T03:16:41.774Z,17.03
2019-01-31T03:17:51.806Z,17.03
2019-01-31T03:19:01.848Z,17.02
2019-01-31T03:20:11.894Z,17.02
2019-01-31T03:21:21.925Z,17.02
2019-01-31T03:22:31.959Z,17.02
2019-01-31T03:23:42.003Z,17.03
2019-01-31T03:24:52.046Z,17.02
2019-01-31T03:26:02.095Z,17.02
2019-01-31T03:27:12.135Z,17.02
2019-01-31T03:28:22.176Z,17.01
2019-01-31T03:29:32.207Z,17.02
2019-01-31T03:30:42.265Z,17.02
2019-01-31T03:31:52.300Z,17.02
2019-01-31T03:33:02.341Z,17.01
2019-01-31T03:34:12.399Z,17.01
2019-01-31T03:35:22.440Z,17.01
2019-01-31T03:36:32.489Z,17.01
2019-01-31T03:37:42.513Z,17.01
2019-01-31T03:38:52.560Z,17.01
2019-01-31T03:40:07.019Z,17.01
2019-01-31T03:41:12.638Z,17.00
2019-01-31T03:42:22.674Z,17.03
2019-01-31T03:43:32.738Z,17.01
2019-01-31T03:44:42.780Z,17.00
2019-01-31T03:45:52.813Z,17.00
2019-01-31T03:47:02.852Z,17.01
2019-01-31T03:48:12.883Z,16.99
2019-01-31T03:49:22.932Z,16.99
2019-01-31T03:50:32.958Z,16.99
2019-01-31T03:51:43.001Z,16.98
2019-01-31T03:52:53.040Z,16.98
2019-01-31T03:54:03.072Z,16.98
2019-01-31T03:55:13.114Z,16.98
2019-01-31T03:56:23.149Z,16.98
2019-01-31T03:57:33.183Z,16.97
2019-01-31T03:58:43.218Z,16.97
2019-01-31T04:01:03.560Z,16.98
2019-01-31T04:02:13.598Z,16.97
2019-01-31T04:03:23.637Z,16.97
2019-01-31T04:04:33.981Z,16.96
2019-01-31T04:05:44.009Z,16.96
2019-01-31T04:06:54.045Z,16.97
2019-01-31T04:08:04.083Z,16.96
2019-01-31T04:09:14.148Z,16.96
2019-01-31T04:10:24.182Z,16.97
2019-01-31T04:11:35.208Z,16.96
2019-01-31T04:12:45.239Z,16.95
2019-01-31T04:13:55.324Z,16.95
2019-01-31T04:15:05.338Z,16.96
2019-01-31T04:16:15.380Z,16.95
2019-01-31T04:17:25.416Z,16.95
2019-01-31T04:18:35.480Z,16.95
2019-01-31T04:19:45.518Z,16.95
2019-01-31T04:20:55.558Z,16.95
2019-01-31T04:22:05.595Z,16.95
2019-01-31T04:23:15.626Z,16.95
2019-01-31T04:24:25.753Z,16.95
2019-01-31T04:25:35.716Z,16.95
2019-01-31T04:26:45.790Z,16.95
2019-01-31T04:27:55.793Z,16.94
2019-01-31T04:29:05.812Z,16.95
2019-01-31T04:30:16.088Z,16.95
2019-01-31T04:31:26.134Z,16.94
2019-01-31T04:32:36.168Z,16.94
2019-01-31T04:33:46.202Z,16.94
2019-01-31T04:34:56.230Z,16.94
2019-01-31T04:36:06.264Z,16.94
2019-01-31T04:37:16.303Z,16.94
2019-01-31T04:38:26.347Z,16.93
2019-01-31T04:39:36.380Z,16.93
2019-01-31T04:40:46.473Z,16.93
2019-01-31T04:41:56.515Z,16.93
2019-01-31T04:43:06.542Z,16.93
2019-01-31T04:44:16.569Z,16.92
2019-01-31T04:45:26.611Z,16.92
2019-01-31T04:46:36.670Z,16.92
2019-01-31T04:47:46.718Z,16.92
2019-01-31T04:48:56.738Z,16.92
2019-01-31T04:50:06.773Z,16.93
2019-01-31T04:51:16.810Z,16.92
2019-01-31T04:52:26.845Z,16.91
2019-01-31T04:53:36.877Z,16.92
2019-01-31T04:54:47.915Z,16.91
2019-01-31T04:55:57.949Z,16.91
2019-01-31T04:57:07.999Z,16.91
2019-01-31T04:58:18.034Z,16.91
2019-01-31T04:59:28.063Z,16.91
2019-01-31T05:00:38.101Z,16.90
2019-01-31T05:01:48.128Z,16.89
2019-01-31T05:02:58.172Z,16.89
2019-01-31T05:04:08.212Z,16.90
2019-01-31T05:05:18.245Z,16.90
2019-01-31T05:06:28.289Z,16.89
2019-01-31T05:07:38.322Z,16.90
2019-01-31T05:08:48.414Z,16.89
2019-01-31T05:09:58.427Z,16.89
2019-01-31T05:11:08.459Z,16.89
2019-01-31T05:12:18.562Z,16.89
2019-01-31T05:13:28.596Z,16.88
2019-01-31T05:14:38.664Z,16.88
2019-01-31T05:15:48.703Z,16.88
2019-01-31T05:16:58.725Z,16.88
2019-01-31T05:18:08.791Z,16.88
2019-01-31T05:19:18.847Z,16.88
2019-01-31T05:20:28.878Z,16.87
2019-01-31T05:21:38.919Z,16.87
2019-01-31T05:22:49.981Z,16.88
2019-01-31T05:24:00.015Z,16.87
2019-01-31T05:25:10.058Z,16.87
2019-01-31T05:26:20.091Z,16.87
2019-01-31T05:27:30.147Z,16.87
2019-01-31T05:28:40.181Z,16.87
2019-01-31T05:29:50.226Z,16.86
2019-01-31T05:31:00.282Z,16.86
2019-01-31T05:32:10.321Z,16.86
2019-01-31T05:33:20.349Z,16.87
2019-01-31T05:34:30.391Z,16.86
2019-01-31T05:35:40.455Z,16.86
2019-01-31T05:36:51.500Z,16.85
2019-01-31T05:38:01.540Z,16.85
2019-01-31T05:39:11.599Z,16.85
2019-01-31T05:40:21.733Z,16.85
2019-01-31T05:41:31.686Z,16.85
2019-01-31T05:42:41.781Z,16.85
2019-01-31T05:43:51.810Z,16.85
2019-01-31T05:45:01.848Z,16.85
2019-01-31T05:46:11.893Z,16.84
2019-01-31T05:47:21.933Z,16.84
2019-01-31T05:48:31.976Z,16.84
2019-01-31T05:49:42.008Z,16.84
2019-01-31T05:50:52.042Z,16.83
2019-01-31T05:52:02.074Z,16.83
2019-01-31T05:53:12.104Z,16.83
2019-01-31T05:54:22.148Z,16.83
2019-01-31T05:55:32.187Z,16.83
2019-01-31T05:56:43.210Z,16.83
2019-01-31T05:57:53.240Z,16.82
2019-01-31T05:59:05.707Z,16.83
2019-01-31T06:00:13.308Z,16.83
2019-01-31T06:01:23.333Z,16.82
2019-01-31T06:02:33.379Z,16.82
2019-01-31T06:03:43.405Z,16.82
2019-01-31T06:04:53.892Z,16.82
2019-01-31T06:06:03.617Z,16.82
2019-01-31T06:07:13.657Z,16.81
2019-01-31T06:08:23.700Z,16.82
2019-01-31T06:09:34.718Z,16.81
2019-01-31T06:10:45.090Z,16.81
2019-01-31T06:11:55.162Z,16.81
2019-01-31T06:13:06.187Z,16.80
2019-01-31T06:14:16.236Z,16.80
2019-01-31T06:15:26.277Z,16.79
2019-01-31T06:16:36.326Z,16.79
2019-01-31T06:17:46.359Z,16.79
2019-01-31T06:18:56.400Z,16.82
2019-01-31T06:20:06.444Z,16.86
2019-01-31T06:21:16.487Z,16.90
2019-01-31T06:22:26.541Z,16.94
2019-01-31T06:23:36.586Z,16.99
2019-01-31T06:24:46.622Z,17.06
2019-01-31T06:25:56.670Z,17.12
2019-01-31T06:27:06.715Z,17.18
2019-01-31T06:28:16.753Z,17.22
2019-01-31T06:29:26.802Z,17.28
2019-01-31T06:30:36.846Z,17.33
2019-01-31T06:31:46.891Z,17.38
2019-01-31T06:32:56.941Z,17.41
2019-01-31T06:34:07.293Z,17.44
2019-01-31T06:35:17.354Z,17.47
2019-01-31T06:36:27.402Z,17.50
2019-01-31T06:37:37.625Z,17.52
2019-01-31T06:38:47.676Z,17.54
2019-01-31T06:39:57.751Z,17.55
2019-01-31T06:41:17.941Z,17.57
2019-01-31T06:42:17.854Z,17.58
2019-01-31T06:43:27.907Z,17.61
2019-01-31T06:44:37.960Z,17.61
2019-01-31T06:45:49.015Z,17.61
2019-01-31T06:46:59.066Z,17.61
2019-01-31T06:48:09.123Z,17.62
2019-01-31T06:49:19.182Z,17.64
2019-01-31T06:50:29.228Z,17.63
2019-01-31T06:51:39.288Z,17.64
2019-01-31T06:52:49.332Z,17.63
2019-01-31T06:53:59.396Z,17.62
2019-01-31T06:55:09.667Z,17.62
2019-01-31T06:56:19.718Z,17.61
2019-01-31T06:57:29.767Z,17.61
2019-01-31T06:58:41.196Z,17.60
2019-01-31T06:59:49.877Z,17.60
2019-01-31T07:00:59.948Z,17.58
2019-01-31T07:02:09.995Z,17.58
2019-01-31T07:03:20.171Z,17.55
2019-01-31T07:04:30.290Z,17.54
2019-01-31T07:05:40.283Z,17.53
2019-01-31T07:06:50.325Z,17.53
2019-01-31T07:08:00.379Z,17.54
2019-01-31T07:09:10.451Z,17.57
2019-01-31T07:10:20.545Z,17.59
2019-01-31T07:11:30.593Z,17.61
2019-01-31T07:12:40.675Z,17.63
2019-01-31T07:13:50.726Z,17.67
2019-01-31T07:15:00.774Z,17.71
2019-01-31T07:16:10.843Z,17.77
2019-01-31T07:17:20.891Z,17.80
2019-01-31T07:18:30.960Z,17.85
2019-01-31T07:19:41.032Z,17.90
2019-01-31T07:20:51.300Z,17.96
2019-01-31T07:22:01.368Z,18.03
2019-01-31T07:23:11.636Z,18.09
2019-01-31T07:24:21.710Z,18.15
2019-01-31T07:25:31.788Z,18.22
2019-01-31T07:26:41.857Z,18.29
2019-01-31T07:27:51.932Z,18.36
2019-01-31T07:29:02.206Z,18.43
2019-01-31T07:30:12.289Z,18.49
2019-01-31T07:31:22.375Z,18.55
2019-01-31T07:32:32.460Z,18.61
2019-01-31T07:33:42.545Z,18.68
2019-01-31T07:34:52.625Z,18.73
2019-01-31T07:36:02.712Z,18.77
2019-01-31T07:37:12.792Z,18.82
2019-01-31T07:38:22.883Z,18.87
2019-01-31T07:39:33.002Z,18.92
2019-01-31T07:40:43.117Z,18.96
2019-01-31T07:41:53.212Z,19.01
2019-01-31T07:43:03.308Z,19.05
2019-01-31T07:44:13.404Z,19.10
2019-01-31T07:45:23.499Z,19.16
2019-01-31T07:46:33.595Z,19.22
2019-01-31T07:47:43.722Z,19.27
2019-01-31T07:48:53.834Z,19.33
2019-01-31T07:50:04.978Z,19.38
2019-01-31T07:51:15.025Z,19.43
2019-01-31T07:52:25.127Z,19.47
2019-01-31T07:53:35.224Z,19.52
2019-01-31T07:54:45.321Z,19.55
2019-01-31T07:55:55.417Z,19.61
2019-01-31T07:57:05.516Z,19.65
2019-01-31T07:58:15.624Z,19.69
2019-01-31T07:59:25.819Z,19.72
2019-01-31T08:00:35.933Z,19.74
2019-01-31T08:01:46.035Z,19.78
2019-01-31T08:02:57.153Z,19.79
2019-01-31T08:04:07.243Z,19.82
2019-01-31T08:05:18.362Z,19.84
2019-01-31T08:06:28.462Z,19.87
2019-01-31T08:07:38.570Z,19.88
2019-01-31T08:08:48.690Z,19.89
2019-01-31T08:09:58.793Z,19.90
2019-01-31T08:11:08.899Z,19.92
2019-01-31T08:12:19.001Z,19.95
2019-01-31T08:13:29.122Z,19.96
2019-01-31T08:14:39.231Z,19.98
2019-01-31T08:15:49.535Z,20.00
2019-01-31T08:16:59.646Z,20.02
2019-01-31T08:18:11.105Z,20.04
2019-01-31T08:19:20.197Z,20.05
2019-01-31T08:20:30.307Z,20.05
2019-01-31T08:21:41.167Z,20.07
2019-01-31T08:22:50.526Z,20.07
2019-01-31T08:24:00.632Z,20.09
2019-01-31T08:25:10.753Z,20.10
2019-01-31T08:26:20.859Z,20.12
2019-01-31T08:27:30.965Z,20.12
2019-01-31T08:28:41.084Z,20.13
2019-01-31T08:29:51.228Z,20.14
2019-01-31T08:31:01.371Z,20.15
2019-01-31T08:32:11.480Z,20.15
2019-01-31T08:33:21.600Z,20.14
2019-01-31T08:34:31.711Z,20.14
2019-01-31T08:35:41.822Z,20.13
2019-01-31T08:36:51.938Z,20.12
2019-01-31T08:38:02.159Z,20.11
2019-01-31T08:39:12.169Z,20.10
2019-01-31T08:40:22.288Z,20.08
2019-01-31T08:41:32.393Z,20.07
2019-01-31T08:42:42.503Z,20.05
2019-01-31T08:43:52.622Z,20.03
2019-01-31T08:45:02.737Z,20.02
2019-01-31T08:46:13.156Z,20.01
2019-01-31T08:47:23.269Z,20.01
2019-01-31T08:48:33.387Z,20.01
2019-01-31T08:49:43.636Z,20.03
2019-01-31T08:50:53.739Z,20.04
2019-01-31T08:52:03.858Z,20.06
2019-01-31T08:53:13.968Z,20.08
2019-01-31T08:54:24.069Z,20.10
2019-01-31T08:55:34.185Z,20.10
2019-01-31T08:56:44.314Z,20.12
2019-01-31T08:57:54.438Z,20.13
2019-01-31T08:59:04.591Z,20.14
2019-01-31T09:00:14.705Z,20.16
2019-01-31T09:01:24.814Z,20.16
2019-01-31T09:02:34.959Z,20.17
2019-01-31T09:03:45.103Z,20.17
2019-01-31T09:04:55.210Z,20.17
2019-01-31T09:06:05.333Z,20.18
2019-01-31T09:07:15.661Z,20.17
2019-01-31T09:08:25.729Z,20.16
2019-01-31T09:09:35.841Z,20.14
2019-01-31T09:10:45.953Z,20.13
2019-01-31T09:11:56.072Z,20.10
2019-01-31T09:13:06.203Z,20.09
2019-01-31T09:14:16.312Z,20.07
2019-01-31T09:15:26.429Z,20.06
2019-01-31T09:16:36.547Z,20.05
2019-01-31T09:17:46.971Z,20.05
2019-01-31T09:18:57.081Z,20.02
2019-01-31T09:20:07.195Z,20.01
2019-01-31T09:21:17.345Z,19.99
2019-01-31T09:22:27.612Z,19.99
2019-01-31T09:23:37.723Z,19.95
2019-01-31T09:24:47.850Z,19.94
2019-01-31T09:25:58.962Z,19.90
2019-01-31T09:27:09.074Z,19.88
2019-01-31T09:28:19.205Z,19.87
2019-01-31T09:29:29.316Z,19.83
2019-01-31T09:30:39.464Z,19.81
2019-01-31T09:31:49.565Z,19.79
2019-01-31T09:32:59.675Z,19.76
2019-01-31T09:34:09.781Z,19.74
2019-01-31T09:35:19.886Z,19.72
2019-01-31T09:36:29.988Z,19.69
2019-01-31T09:37:40.289Z,19.67
2019-01-31T09:38:50.386Z,19.63
2019-01-31T09:40:00.495Z,19.60
2019-01-31T09:41:10.594Z,19.57
2019-01-31T09:42:26.745Z,19.54
2019-01-31T09:43:30.784Z,19.51
2019-01-31T09:44:40.883Z,19.49
2019-01-31T09:45:50.982Z,19.47
2019-01-31T09:47:02.080Z,19.43
2019-01-31T09:48:12.172Z,19.41
2019-01-31T09:49:22.278Z,19.39
2019-01-31T09:50:32.385Z,19.36
2019-01-31T09:51:43.490Z,19.34
2019-01-31T09:52:54.548Z,19.33
2019-01-31T09:54:03.677Z,19.31
2019-01-31T09:55:13.773Z,19.29
2019-01-31T09:56:23.861Z,19.27
2019-01-31T09:57:33.955Z,19.26
2019-01-31T09:58:44.054Z,19.25
2019-01-31T09:59:54.149Z,19.24
2019-01-31T10:01:04.248Z,19.24
2019-01-31T10:02:14.341Z,19.23
2019-01-31T10:03:24.465Z,19.22
2019-01-31T10:04:34.559Z,19.22
2019-01-31T10:06:54.760Z,19.24
2019-01-31T10:08:04.849Z,19.24
2019-01-31T10:09:16.027Z,19.25
2019-01-31T10:10:25.046Z,19.27
2019-01-31T10:11:35.133Z,19.28
2019-01-31T10:12:45.331Z,19.31
2019-01-31T10:13:55.373Z,19.32
2019-01-31T10:15:05.425Z,19.33
2019-01-31T10:16:15.553Z,19.35
2019-01-31T10:17:25.679Z,19.36
2019-01-31T10:18:36.154Z,19.37
2019-01-31T10:19:46.229Z,19.37
2019-01-31T10:20:56.310Z,19.39
2019-01-31T10:22:06.404Z,19.38
2019-01-31T10:23:16.500Z,19.39
2019-01-31T10:24:26.592Z,19.39
2019-01-31T10:25:36.663Z,19.39
2019-01-31T10:26:46.775Z,19.40
2019-01-31T10:27:56.855Z,19.39
2019-01-31T10:29:06.948Z,19.39
2019-01-31T10:30:17.041Z,19.40
2019-01-31T10:31:27.232Z,19.41
2019-01-31T10:32:37.342Z,19.42
2019-01-31T10:33:47.473Z,19.43
2019-01-31T10:34:57.567Z,19.45
2019-01-31T10:36:07.703Z,19.48
2019-01-31T10:37:17.822Z,19.51
2019-01-31T10:38:27.922Z,19.53
2019-01-31T10:39:38.330Z,19.58
2019-01-31T10:40:48.434Z,19.62
2019-01-31T10:41:58.535Z,19.67
2019-01-31T10:43:08.633Z,19.70
2019-01-31T10:44:18.734Z,19.75
2019-01-31T10:45:29.836Z,19.79
2019-01-31T10:46:39.939Z,19.84
2019-01-31T10:47:51.048Z,19.88
2019-01-31T10:49:01.147Z,19.95
2019-01-31T10:50:12.248Z,19.97
2019-01-31T10:51:22.358Z,20.00
2019-01-31T10:52:32.466Z,20.03
2019-01-31T10:53:42.576Z,20.04
2019-01-31T10:54:52.688Z,20.06
2019-01-31T10:56:03.800Z,20.09
2019-01-31T10:57:13.908Z,20.10
2019-01-31T10:58:24.022Z,20.13
2019-01-31T10:59:34.133Z,20.12
2019-01-31T11:00:44.251Z,20.13
2019-01-31T11:01:54.394Z,20.13
2019-01-31T11:03:04.526Z,20.13
2019-01-31T11:04:14.639Z,20.12
2019-01-31T11:05:24.753Z,20.12
2019-01-31T11:06:34.863Z,20.12
2019-01-31T11:07:45.298Z,20.12
2019-01-31T11:08:55.423Z,20.10
2019-01-31T11:10:05.538Z,20.09
2019-01-31T11:11:15.660Z,20.07
2019-01-31T11:12:25.773Z,20.05
2019-01-31T11:13:35.880Z,20.04
2019-01-31T11:14:45.988Z,20.01
2019-01-31T11:15:56.116Z,20.00
2019-01-31T11:17:06.227Z,19.98
2019-01-31T11:18:16.382Z,19.95
2019-01-31T11:19:27.618Z,19.92
2019-01-31T11:20:37.730Z,19.90
2019-01-31T11:21:47.846Z,19.89
2019-01-31T11:22:58.052Z,19.86
2019-01-31T11:24:08.056Z,19.84
2019-01-31T11:25:19.161Z,19.82
2019-01-31T11:26:29.277Z,19.80
2019-01-31T11:27:39.768Z,19.78
2019-01-31T11:28:49.866Z,19.77
2019-01-31T11:29:59.969Z,19.75
2019-01-31T11:31:10.085Z,19.76
2019-01-31T11:32:20.204Z,19.75
2019-01-31T11:33:30.335Z,19.75
2019-01-31T11:34:40.443Z,19.77
2019-01-31T11:35:50.533Z,19.78
2019-01-31T11:37:00.642Z,19.81
2019-01-31T11:38:10.755Z,19.84
2019-01-31T11:39:20.864Z,19.89
2019-01-31T11:40:30.969Z,19.94
2019-01-31T11:41:41.087Z,19.98
2019-01-31T11:42:51.193Z,20.02
2019-01-31T11:44:01.301Z,20.06
2019-01-31T11:45:11.415Z,20.09
2019-01-31T11:46:21.533Z,20.12
2019-01-31T11:47:31.954Z,20.14
2019-01-31T11:48:42.107Z,20.16
2019-01-31T11:49:53.226Z,20.18
2019-01-31T11:51:03.386Z,20.19
2019-01-31T11:52:13.636Z,20.20
2019-01-31T11:53:23.748Z,20.21
2019-01-31T11:54:33.866Z,20.21
2019-01-31T11:55:43.982Z,20.22
2019-01-31T11:57:05.003Z,20.22
2019-01-31T11:58:04.209Z,20.21
2019-01-31T11:59:14.323Z,20.20
2019-01-31T12:00:24.441Z,20.19
2019-01-31T12:01:34.547Z,20.17
2019-01-31T12:02:54.517Z,20.16
2019-01-31T12:03:54.821Z,20.15
2019-01-31T12:05:04.928Z,20.12
2019-01-31T12:06:15.053Z,20.09
2019-01-31T12:07:25.166Z,20.06
2019-01-31T12:08:35.275Z,20.04
2019-01-31T12:09:45.384Z,20.00
2019-01-31T12:10:55.487Z,19.97
2019-01-31T12:12:05.596Z,19.94
2019-01-31T12:13:23.288Z,19.91
2019-01-31T12:14:25.827Z,19.88
2019-01-31T12:15:35.937Z,19.84
2019-01-31T12:16:46.048Z,19.81
2019-01-31T12:17:56.153Z,19.78
2019-01-31T12:19:07.689Z,19.75
2019-01-31T12:20:17.359Z,19.73
2019-01-31T12:21:27.457Z,19.69
2019-01-31T12:22:37.639Z,19.67
2019-01-31T12:23:48.111Z,19.65
2019-01-31T12:24:59.212Z,19.62
2019-01-31T12:26:09.312Z,19.59
2019-01-31T12:27:19.414Z,19.55
2019-01-31T12:28:29.514Z,19.53
2019-01-31T12:29:39.732Z,19.50
2019-01-31T12:30:49.708Z,19.48
2019-01-31T12:32:00.795Z,19.46
2019-01-31T12:33:10.899Z,19.44
2019-01-31T12:34:20.984Z,19.42
2019-01-31T12:35:31.084Z,19.42
2019-01-31T12:36:41.182Z,19.42
2019-01-31T12:37:51.283Z,19.42
2019-01-31T12:39:01.384Z,19.44
2019-01-31T12:40:11.490Z,19.46
2019-01-31T12:41:21.629Z,19.48
2019-01-31T12:42:31.729Z,19.51
2019-01-31T12:43:41.826Z,19.54
2019-01-31T12:44:51.992Z,19.59
2019-01-31T12:46:02.104Z,19.64
2019-01-31T12:47:12.203Z,19.68
2019-01-31T12:48:22.315Z,19.72
2019-01-31T12:49:32.428Z,19.76
2019-01-31T12:50:42.539Z,19.81
2019-01-31T12:51:52.648Z,19.85
2019-01-31T12:53:02.745Z,19.89
2019-01-31T12:54:13.857Z,19.94
2019-01-31T12:55:23.968Z,19.97
2019-01-31T12:56:34.077Z,20.00
2019-01-31T12:57:44.189Z,20.02
2019-01-31T12:58:54.288Z,20.05
2019-01-31T13:00:05.389Z,20.07
2019-01-31T13:01:15.498Z,20.08
2019-01-31T13:02:25.651Z,20.09
2019-01-31T13:03:36.078Z,20.10
2019-01-31T13:04:46.186Z,20.10
2019-01-31T13:05:56.302Z,20.11
2019-01-31T13:07:06.414Z,20.10
2019-01-31T13:08:16.542Z,20.09
2019-01-31T13:09:28.348Z,20.10
2019-01-31T13:10:36.808Z,20.10
2019-01-31T13:11:46.918Z,20.11
2019-01-31T13:12:57.042Z,20.13
2019-01-31T13:14:07.163Z,20.14
2019-01-31T13:15:17.796Z,20.16
2019-01-31T13:16:27.895Z,20.15
2019-01-31T13:17:39.000Z,20.17
2019-01-31T13:18:49.126Z,20.16
2019-01-31T13:20:00.330Z,20.15
2019-01-31T13:21:10.255Z,20.15
2019-01-31T13:22:20.368Z,20.15
2019-01-31T13:23:30.786Z,20.15
2019-01-31T13:24:41.790Z,20.15
2019-01-31T13:25:51.898Z,20.15
2019-01-31T13:27:02.027Z,20.15
2019-01-31T13:28:12.135Z,20.14
2019-01-31T13:29:22.264Z,20.13
2019-01-31T13:30:32.375Z,20.10
2019-01-31T13:31:42.492Z,20.07
2019-01-31T13:32:52.642Z,20.05
2019-01-31T13:34:02.758Z,20.03
2019-01-31T13:35:12.882Z,20.01
2019-01-31T13:36:22.999Z,20.01
2019-01-31T13:37:33.112Z,20.01
2019-01-31T13:38:44.128Z,20.00
2019-01-31T13:39:54.233Z,19.98
2019-01-31T13:41:04.342Z,19.97
2019-01-31T13:42:14.469Z,19.96
2019-01-31T13:43:24.584Z,19.96
2019-01-31T13:44:34.706Z,19.97
2019-01-31T13:45:44.943Z,19.99
2019-01-31T13:46:54.989Z,20.00
2019-01-31T13:48:05.098Z,20.03
2019-01-31T13:49:17.862Z,20.08
2019-01-31T13:50:25.383Z,20.12
2019-01-31T13:51:35.522Z,20.16
2019-01-31T13:52:45.635Z,20.22
2019-01-31T13:53:55.755Z,20.27
2019-01-31T13:55:05.866Z,20.33
2019-01-31T13:56:16.001Z,20.38
2019-01-31T13:57:26.128Z,20.43
2019-01-31T13:58:36.252Z,20.47
2019-01-31T13:59:46.376Z,20.52
2019-01-31T14:00:56.519Z,20.56
2019-01-31T14:02:09.288Z,20.59
2019-01-31T14:03:16.812Z,20.63
2019-01-31T14:04:26.953Z,20.65
2019-01-31T14:05:37.087Z,20.67
2019-01-31T14:06:47.274Z,20.69
2019-01-31T14:07:57.421Z,20.70
2019-01-31T14:09:07.562Z,20.70
2019-01-31T14:10:17.683Z,20.69
2019-01-31T14:11:27.821Z,20.68
2019-01-31T14:12:37.972Z,20.66
2019-01-31T14:13:48.108Z,20.65
2019-01-31T14:14:58.243Z,20.63
2019-01-31T14:16:08.387Z,20.62
2019-01-31T14:17:18.506Z,20.59
2019-01-31T14:18:28.652Z,20.57
2019-01-31T14:19:38.774Z,20.55
2019-01-31T14:20:48.899Z,20.51
2019-01-31T14:21:59.019Z,20.48
2019-01-31T14:23:09.156Z,20.46
2019-01-31T14:24:19.266Z,20.42
2019-01-31T14:25:29.389Z,20.38
2019-01-31T14:26:39.504Z,20.35
2019-01-31T14:27:50.214Z,20.32
2019-01-31T14:28:59.746Z,20.27
2019-01-31T14:30:09.863Z,20.23
2019-01-31T14:31:19.973Z,20.20
2019-01-31T14:32:30.080Z,20.17
2019-01-31T14:33:40.195Z,20.13
2019-01-31T14:34:50.308Z,20.09
2019-01-31T14:36:00.452Z,20.07
2019-01-31T14:37:10.550Z,20.03
2019-01-31T14:38:20.670Z,20.00
2019-01-31T14:39:30.772Z,19.97
2019-01-31T14:40:40.886Z,19.95
2019-01-31T14:41:52.062Z,19.92
2019-01-31T14:43:02.122Z,19.89
2019-01-31T14:44:20.164Z,19.87
2019-01-31T14:45:23.369Z,19.84
2019-01-31T14:46:33.618Z,19.83
2019-01-31T14:47:43.719Z,19.80
2019-01-31T14:48:54.740Z,19.79
2019-01-31T14:50:05.753Z,20.06
2019-01-31T14:51:16.761Z,20.37
2019-01-31T14:52:27.790Z,20.51
2019-01-31T14:53:38.782Z,20.57
2019-01-31T14:54:49.779Z,20.63
2019-01-31T14:56:00.805Z,20.68
2019-01-31T14:57:11.853Z,20.71
2019-01-31T14:58:22.885Z,20.75
2019-01-31T14:59:33.899Z,20.78
2019-01-31T15:00:44.924Z,20.84
2019-01-31T15:01:55.946Z,20.93
2019-01-31T15:03:06.968Z,20.98
2019-01-31T15:04:17.995Z,21.03
2019-01-31T15:05:29.027Z,21.06